Time;durP1;ratioP1;P1;durP2;ratioP2;P2;SDS_P1;SDS_P2;PMS_P1;PMS_P2;Temp;Humidity;BMP_temperature;BMP_pressure;BME280_temperature;BME280_humidity;BME280_pressure;Samples;Min_cycle;Max_cycle;Signal;HPM_P1;HPM_P2
2022/12/18 00:01:52;;;;;;;34.72;19.02;;;-4.80;99.90;;;;;;5018262;28;20116;-71
2022/12/18 00:04:23;;;;;;;23.75;16.95;;;-4.80;99.90;;;;;;5014856;28;20029;-71
2022/12/18 00:06:50;;;;;;;30.85;20.30;;;-4.70;99.90;;;;;;5035622;28;20030;-71
2022/12/18 00:09:16;;;;;;;26.73;19.05;;;-4.60;99.90;;;;;;5014108;28;20075;-71
2022/12/18 00:11:41;;;;;;;23.98;17.23;;;-4.60;99.90;;;;;;5018835;28;20392;-70
2022/12/18 00:14:09;;;;;;;20.75;15.27;;;-4.70;99.90;;;;;;5018186;28;20080;-71
2022/12/18 00:16:36;;;;;;;46.25;19.90;;;-4.70;99.90;;;;;;5011984;28;20499;-70
2022/12/18 00:19:03;;;;;;;25.27;16.35;;;-4.70;99.90;;;;;;5010372;28;20422;-71
2022/12/18 00:21:31;;;;;;;29.35;18.75;;;-4.60;99.90;;;;;;5006251;28;20065;-70
2022/12/18 00:23:57;;;;;;;30.15;18.48;;;-4.70;99.90;;;;;;5023035;28;20030;-71
2022/12/18 00:26:28;;;;;;;31.55;21.02;;;-4.90;99.90;;;;;;5010281;28;20571;-71
2022/12/18 00:28:55;;;;;;;39.47;21.23;;;-4.90;99.90;;;;;;5016170;28;20034;-71
2022/12/18 00:31:23;;;;;;;39.30;20.80;;;-5.00;99.90;;;;;;5035127;28;20046;-71
2022/12/18 00:33:50;;;;;;;27.75;17.63;;;-4.80;99.90;;;;;;5017905;28;20993;-71
2022/12/18 00:36:18;;;;;;;39.30;22.42;;;-4.80;99.90;;;;;;5023965;28;20033;-71
2022/12/18 00:38:45;;;;;;;35.33;19.95;;;-4.70;99.90;;;;;;5016111;28;20034;-71
2022/12/18 00:41:13;;;;;;;41.00;20.00;;;-4.60;99.90;;;;;;5021398;28;20045;-70
2022/12/18 00:43:39;;;;;;;34.63;19.60;;;-4.70;99.90;;;;;;5018181;28;20041;-70
2022/12/18 00:46:05;;;;;;;34.58;19.23;;;-4.60;99.90;;;;;;5018703;28;20071;-70
2022/12/18 00:48:31;;;;;;;33.45;19.98;;;-4.60;99.90;;;;;;5021256;28;20084;-70
2022/12/18 00:50:57;;;;;;;30.55;17.67;;;-4.60;99.90;;;;;;5012930;28;20411;-70
2022/12/18 00:53:23;;;;;;;37.85;18.77;;;-4.70;99.90;;;;;;5022712;28;20136;-71
2022/12/18 00:55:48;;;;;;;25.88;18.38;;;-4.80;99.90;;;;;;5032433;28;20034;-71
2022/12/18 00:58:16;;;;;;;24.83;18.38;;;-4.70;99.90;;;;;;5032327;28;20078;-71
2022/12/18 01:00:42;;;;;;;32.45;18.35;;;-4.70;99.90;;;;;;4996028;28;20121;-71
2022/12/18 01:03:12;;;;;;;25.52;14.93;;;-4.70;99.90;;;;;;5011109;28;20028;-70
2022/12/18 01:05:40;;;;;;;37.13;20.23;;;-4.60;99.90;;;;;;5017421;28;20030;-71
2022/12/18 01:08:06;;;;;;;23.20;18.15;;;-4.60;99.90;;;;;;5012849;28;20588;-72
2022/12/18 01:10:31;;;;;;;30.70;18.00;;;-4.60;99.90;;;;;;5013862;28;20061;-70
2022/12/18 01:12:57;;;;;;;21.45;17.17;;;-4.60;99.90;;;;;;5017644;28;20112;-70
2022/12/18 01:15:23;;;;;;;40.70;19.80;;;-4.70;99.90;;;;;;5010037;28;20128;-70
2022/12/18 01:17:48;;;;;;;30.38;16.70;;;-4.90;99.90;;;;;;5015745;28;20133;-70
2022/12/18 01:20:14;;;;;;;23.15;17.85;;;-4.80;99.90;;;;;;4992552;28;20068;-70
2022/12/18 01:22:40;;;;;;;20.13;16.58;;;-4.70;99.90;;;;;;5023120;28;20037;-70
2022/12/18 01:25:06;;;;;;;25.05;17.02;;;-4.50;99.90;;;;;;5010654;28;20029;-71
2022/12/18 01:27:33;;;;;;;27.13;18.40;;;-4.50;99.90;;;;;;5005208;28;20499;-70
2022/12/18 01:29:59;;;;;;;22.13;17.23;;;-4.50;99.90;;;;;;5005547;28;20029;-71
2022/12/18 01:32:25;;;;;;;26.45;16.20;;;-4.40;99.90;;;;;;5016728;28;20091;-71
2022/12/18 01:34:50;;;;;;;22.48;15.20;;;-4.40;99.90;;;;;;5028819;28;20530;-71
2022/12/18 01:37:16;;;;;;;24.00;16.58;;;-4.40;99.90;;;;;;5005256;28;20037;-71
2022/12/18 01:39:42;;;;;;;23.83;15.52;;;-4.70;99.90;;;;;;5009361;28;20119;-71
2022/12/18 01:42:15;;;;;;;17.40;12.88;;;-4.80;99.90;;;;;;4997738;28;20057;-71
2022/12/18 01:45:05;;;;;;;14.55;12.75;;;-4.70;99.90;;;;;;5001101;28;20508;-71
2022/12/18 01:47:40;;;;;;;8.93;8.23;;;-4.60;99.90;;;;;;5012793;28;20042;-71
2022/12/18 01:50:21;;;;;;;18.45;13.30;;;-4.60;99.90;;;;;;5005992;28;20017;-71
2022/12/18 01:53:17;;;;;;;14.07;12.38;;;-4.60;99.90;;;;;;5015322;28;20519;-71
2022/12/18 01:55:54;;;;;;;18.33;13.43;;;-4.60;99.90;;;;;;5005234;28;20095;-71
2022/12/18 01:58:27;;;;;;;17.42;12.80;;;-4.60;99.90;;;;;;5018452;28;20045;-71
2022/12/18 02:00:54;;;;;;;30.60;14.98;;;-4.60;99.90;;;;;;5011990;28;20029;-70
2022/12/18 02:03:20;;;;;;;12.73;11.43;;;-4.80;99.90;;;;;;5018647;28;20454;-71
2022/12/18 02:06:09;;;;;;;20.85;13.60;;;-4.70;99.90;;;;;;5014431;28;20034;-71
2022/12/18 02:08:51;;;;;;;22.20;16.17;;;-4.60;99.90;;;;;;5003959;28;20034;-71
2022/12/18 02:11:26;;;;;;;13.00;10.95;;;-4.70;99.90;;;;;;5013360;28;20028;-71
2022/12/18 02:13:55;;;;;;;21.27;14.55;;;-4.60;99.90;;;;;;5017243;28;20132;-71
2022/12/18 02:16:53;;;;;;;23.23;12.13;;;-4.60;99.90;;;;;;5013240;28;20479;-71
2022/12/18 02:19:29;;;;;;;18.90;15.85;;;-4.60;99.90;;;;;;5016821;28;20288;-70
2022/12/18 02:22:13;;;;;;;29.73;17.80;;;-4.50;99.90;;;;;;5013852;28;20035;-71
2022/12/18 02:24:50;;;;;;;19.67;15.65;;;-4.50;99.90;;;;;;5014147;28;20100;-71
2022/12/18 02:27:15;;;;;;;26.17;19.63;;;-4.70;99.90;;;;;;5014875;28;20117;-70
2022/12/18 02:29:49;;;;;;;25.98;16.35;;;-4.80;99.90;;;;;;5010994;28;20399;-70
2022/12/18 02:32:21;;;;;;;31.60;16.83;;;-4.80;99.90;;;;;;5022605;28;20034;-70
2022/12/18 02:34:49;;;;;;;16.23;11.77;;;-4.70;99.90;;;;;;5016667;28;20034;-70
2022/12/18 02:37:18;;;;;;;29.60;18.17;;;-4.70;99.90;;;;;;5020556;28;20109;-70
2022/12/18 02:39:46;;;;;;;37.72;18.98;;;-4.70;99.90;;;;;;5012287;28;20037;-70
2022/12/18 02:42:12;;;;;;;30.15;16.58;;;-4.60;99.90;;;;;;5011147;28;20116;-70
2022/12/18 02:44:46;;;;;;;33.30;18.20;;;-4.60;99.90;;;;;;5017927;28;20488;-70
2022/12/18 02:47:14;;;;;;;21.90;16.70;;;-4.60;99.90;;;;;;5012330;28;20092;-70
2022/12/18 02:50:02;;;;;;;23.73;17.48;;;-4.60;99.90;;;;;;5017153;28;20500;-70
2022/12/18 02:52:41;;;;;;;18.23;13.93;;;-4.70;99.90;;;;;;5004656;28;20037;-70
2022/12/18 02:55:52;;;;;;;21.13;14.63;;;-4.70;99.90;;;;;;5033332;28;20146;-70
2022/12/18 02:58:33;;;;;;;39.33;18.05;;;-4.60;99.90;;;;;;5001816;28;20045;-70
2022/12/18 03:01:27;;;;;;;25.65;16.95;;;-4.60;99.90;;;;;;5014526;28;20029;-68
2022/12/18 03:04:02;;;;;;;25.52;15.68;;;-4.80;99.90;;;;;;5006295;28;20096;-70
2022/12/18 03:06:42;;;;;;;33.83;15.95;;;-4.80;99.90;;;;;;5016230;28;20053;-70
2022/12/18 03:09:12;;;;;;;24.35;15.32;;;-4.80;99.90;;;;;;5012689;28;20065;-70
2022/12/18 03:14:29;;;;;;;24.85;17.20;;;-4.60;99.90;;;;;;5014179;28;20117;-70
2022/12/18 03:17:00;;;;;;;28.98;18.77;;;-4.60;99.90;;;;;;5020332;28;20069;-70
2022/12/18 03:19:29;;;;;;;35.97;18.20;;;-4.60;99.90;;;;;;5032851;28;20025;-70
2022/12/18 03:21:57;;;;;;;12.63;9.82;;;-4.50;99.90;;;;;;5015932;28;20434;-69
2022/12/18 03:24:24;;;;;;;45.97;21.25;;;-4.60;99.90;;;;;;5023442;28;20431;-70
2022/12/18 03:26:54;;;;;;;31.40;18.45;;;-4.70;99.90;;;;;;5012756;28;20030;-70
2022/12/18 03:30:02;;;;;;;23.05;15.45;;;-4.90;99.90;;;;;;5023732;28;20018;-70
2022/12/18 03:32:32;;;;;;;33.90;20.38;;;-4.90;99.90;;;;;;5025364;28;20033;-70
2022/12/18 03:35:02;;;;;;;23.67;15.60;;;-4.90;99.90;;;;;;5024714;28;20503;-71
2022/12/18 03:37:28;;;;;;;32.20;18.90;;;-4.90;99.90;;;;;;5018987;28;20283;-71
2022/12/18 03:39:57;;;;;;;39.08;21.08;;;-4.80;99.90;;;;;;5018862;28;20049;-71
2022/12/18 03:42:45;;;;;;;34.85;19.05;;;-4.80;99.90;;;;;;5019374;28;20087;-70
2022/12/18 03:45:26;;;;;;;42.42;21.88;;;-4.70;99.90;;;;;;5025637;28;20034;-70
2022/12/18 03:48:15;;;;;;;34.13;19.40;;;-4.80;99.90;;;;;;5018844;28;20495;-70
2022/12/18 03:50:55;;;;;;;24.80;18.77;;;-4.60;99.90;;;;;;5011857;28;20033;-71
2022/12/18 03:53:43;;;;;;;36.40;19.02;;;-4.70;99.90;;;;;;5022769;28;20064;-71
2022/12/18 03:56:09;;;;;;;32.83;18.40;;;-5.00;99.90;;;;;;5009294;28;20030;-71
2022/12/18 03:58:38;;;;;;;28.60;17.15;;;-5.00;99.90;;;;;;5019578;28;20122;-71
2022/12/18 04:01:06;;;;;;;37.05;19.83;;;-4.90;99.90;;;;;;5011871;28;20118;-70
2022/12/18 04:03:34;;;;;;;25.80;17.65;;;-4.90;99.90;;;;;;5013381;28;20038;-70
2022/12/18 04:06:01;;;;;;;42.22;18.23;;;-4.90;99.90;;;;;;5019512;28;20029;-70
2022/12/18 04:08:27;;;;;;;31.52;21.10;;;-4.80;99.90;;;;;;5034244;28;20037;-71
2022/12/18 04:10:53;;;;;;;33.80;21.48;;;-4.70;99.90;;;;;;5022521;28;20754;-71
2022/12/18 04:13:28;;;;;;;31.88;19.23;;;-4.60;99.90;;;;;;5015148;28;20037;-71
2022/12/18 04:15:54;;;;;;;38.17;20.67;;;-4.70;99.90;;;;;;5024806;28;20068;-71
2022/12/18 04:18:20;;;;;;;38.17;19.05;;;-4.70;99.90;;;;;;5014635;28;20081;-71
2022/12/18 04:20:45;;;;;;;29.27;18.23;;;-4.70;99.90;;;;;;5016730;28;20096;-71
2022/12/18 04:23:11;;;;;;;33.47;17.10;;;-4.80;99.90;;;;;;5031220;28;20092;-70
2022/12/18 04:25:37;;;;;;;43.05;18.83;;;-5.00;99.90;;;;;;5011548;28;20124;-70
2022/12/18 04:28:02;;;;;;;38.08;21.17;;;-5.00;99.90;;;;;;5003415;28;20120;-70
2022/12/18 04:30:28;;;;;;;37.65;20.02;;;-4.90;99.90;;;;;;5012864;28;20041;-70
2022/12/18 04:32:54;;;;;;;45.13;20.50;;;-4.80;99.90;;;;;;5023653;28;20021;-71
2022/12/18 04:35:19;;;;;;;45.17;21.30;;;-4.80;99.90;;;;;;5012388;28;20396;-71
2022/12/18 04:37:45;;;;;;;39.03;19.58;;;-4.70;99.90;;;;;;5002459;28;20499;-71
2022/12/18 04:40:11;;;;;;;44.25;20.23;;;-4.80;99.90;;;;;;5021338;28;20567;-70
2022/12/18 04:42:38;;;;;;;34.78;19.17;;;-4.90;99.90;;;;;;5013782;28;20125;-71
2022/12/18 04:45:04;;;;;;;38.33;23.75;;;-5.10;99.90;;;;;;5017614;28;20496;-71
2022/12/18 04:47:30;;;;;;;31.75;19.25;;;-4.90;99.90;;;;;;5015694;28;20038;-71
2022/12/18 04:49:56;;;;;;;39.38;21.55;;;-4.80;99.90;;;;;;5022856;28;20095;-70
2022/12/18 04:52:22;;;;;;;28.75;19.20;;;-4.90;99.90;;;;;;5018272;28;20025;-70
2022/12/18 04:54:47;;;;;;;43.80;20.40;;;-4.80;99.90;;;;;;5019227;28;20045;-70
2022/12/18 04:57:13;;;;;;;38.88;20.75;;;-4.80;99.90;;;;;;5019139;28;20065;-70
2022/12/18 04:59:39;;;;;;;42.88;20.70;;;-4.90;99.90;;;;;;5017095;28;20526;-70
2022/12/18 05:02:04;;;;;;;37.95;20.80;;;-4.80;99.90;;;;;;5019472;28;20140;-70
2022/12/18 05:04:30;;;;;;;40.20;19.35;;;-5.00;99.90;;;;;;5012463;28;20025;-70
2022/12/18 05:06:55;;;;;;;27.50;18.67;;;-5.00;99.90;;;;;;5017808;28;20036;-70
2022/12/18 05:09:22;;;;;;;27.30;20.25;;;-5.10;99.90;;;;;;5016561;28;20508;-70
2022/12/18 05:11:48;;;;;;;32.92;19.13;;;-5.10;99.90;;;;;;5013150;28;20034;-70
2022/12/18 05:14:14;;;;;;;40.05;20.10;;;-4.90;99.90;;;;;;5018908;28;20529;-70
2022/12/18 05:16:39;;;;;;;49.63;19.30;;;-4.90;99.90;;;;;;5011068;28;20124;-71
2022/12/18 05:19:05;;;;;;;27.10;18.98;;;-4.70;99.90;;;;;;5018109;28;20470;-71
2022/12/18 05:21:31;;;;;;;45.55;20.48;;;-4.90;99.90;;;;;;5017972;28;20114;-70
2022/12/18 05:23:56;;;;;;;30.90;18.20;;;-4.90;99.90;;;;;;5013924;28;20091;-70
2022/12/18 05:26:22;;;;;;;24.10;16.23;;;-4.80;99.90;;;;;;5014089;28;20054;-70
2022/12/18 05:28:48;;;;;;;40.40;21.42;;;-4.90;99.90;;;;;;5009851;28;20421;-70
2022/12/18 05:31:14;;;;;;;39.97;21.63;;;-5.00;99.90;;;;;;5021478;28;20042;-71
2022/12/18 05:33:39;;;;;;;30.52;17.92;;;-4.90;99.90;;;;;;5008692;28;20048;-71
2022/12/18 05:36:07;;;;;;;25.02;18.30;;;-4.90;99.90;;;;;;5014384;28;20475;-71
2022/12/18 05:38:35;;;;;;;30.55;18.23;;;-4.80;99.90;;;;;;5012404;28;20044;-71
2022/12/18 05:41:01;;;;;;;33.45;18.45;;;-4.70;99.90;;;;;;5009140;28;20037;-71
2022/12/18 05:43:27;;;;;;;35.58;19.55;;;-4.80;99.90;;;;;;5017224;28;20025;-70
2022/12/18 05:45:53;;;;;;;32.45;21.80;;;-4.80;99.90;;;;;;5014593;28;20026;-71
2022/12/18 05:48:20;;;;;;;29.60;18.80;;;-4.70;99.90;;;;;;5017679;28;20475;-70
2022/12/18 05:50:48;;;;;;;41.95;20.92;;;-4.90;99.90;;;;;;5015440;28;20142;-71
2022/12/18 05:53:18;;;;;;;42.67;19.92;;;-5.00;99.90;;;;;;5033301;28;20049;-70
2022/12/18 05:55:44;;;;;;;41.58;20.77;;;-5.10;99.90;;;;;;5018791;28;20175;-71
2022/12/18 05:58:11;;;;;;;32.17;19.25;;;-5.10;99.90;;;;;;5012546;28;20038;-71
2022/12/18 06:00:40;;;;;;;29.42;19.48;;;-5.00;99.90;;;;;;5021310;28;20079;-71
2022/12/18 06:03:09;;;;;;;35.83;19.45;;;-5.00;99.90;;;;;;5011549;28;20083;-71
2022/12/18 06:05:42;;;;;;;38.00;19.33;;;-4.90;99.90;;;;;;5015199;28;20037;-71
2022/12/18 06:08:08;;;;;;;25.92;17.88;;;-4.90;99.90;;;;;;5009787;28;20039;-70
2022/12/18 06:10:34;;;;;;;29.85;19.38;;;-4.90;99.90;;;;;;5015321;28;20052;-71
2022/12/18 06:13:00;;;;;;;34.95;21.52;;;-4.90;99.90;;;;;;5015120;28;20484;-71
2022/12/18 06:15:26;;;;;;;28.13;20.70;;;-4.80;99.90;;;;;;5013519;28;20026;-71
2022/12/18 06:17:51;;;;;;;38.72;19.92;;;-5.00;99.90;;;;;;5016921;28;20582;-71
2022/12/18 06:20:17;;;;;;;33.47;19.23;;;-5.10;99.90;;;;;;5000380;28;20041;-71
2022/12/18 06:22:43;;;;;;;32.25;20.13;;;-5.10;99.90;;;;;;5018687;28;20064;-71
2022/12/18 06:25:09;;;;;;;36.95;18.15;;;-5.10;99.90;;;;;;5007693;28;20452;-71
2022/12/18 06:27:34;;;;;;;38.70;18.30;;;-5.10;99.90;;;;;;5023133;28;20442;-71
2022/12/18 06:30:00;;;;;;;33.00;18.42;;;-5.00;99.90;;;;;;5019979;28;20164;-70
2022/12/18 06:32:26;;;;;;;25.67;18.25;;;-5.10;99.90;;;;;;5013762;28;20116;-70
2022/12/18 06:34:53;;;;;;;35.88;20.15;;;-4.90;99.90;;;;;;5020000;28;20033;-71
2022/12/18 06:37:19;;;;;;;37.47;20.35;;;-4.80;99.90;;;;;;5032480;28;20033;-71
2022/12/18 06:39:44;;;;;;;35.22;20.52;;;-5.00;99.90;;;;;;5017017;28;20524;-70
2022/12/18 06:42:10;;;;;;;48.55;19.30;;;-5.10;99.90;;;;;;5015991;28;20183;-71
2022/12/18 06:44:36;;;;;;;31.17;17.67;;;-5.10;99.90;;;;;;5001529;28;20033;-71
2022/12/18 06:47:01;;;;;;;27.42;18.00;;;-4.80;99.90;;;;;;5014936;28;20028;-70
2022/12/18 06:49:27;;;;;;;50.00;17.35;;;-4.90;99.90;;;;;;5008103;28;20034;-70
2022/12/18 06:51:52;;;;;;;45.05;17.75;;;-4.70;99.90;;;;;;5017595;28;20488;-70
2022/12/18 06:54:18;;;;;;;34.85;18.63;;;-4.60;99.90;;;;;;5013936;28;20042;-70
2022/12/18 06:56:45;;;;;;;23.40;18.17;;;-4.60;99.90;;;;;;5017834;28;20049;-69
2022/12/18 06:59:12;;;;;;;22.10;15.00;;;-4.60;99.90;;;;;;5021949;28;20030;-71
2022/12/18 07:01:38;;;;;;;33.17;17.67;;;-4.60;99.90;;;;;;5014511;28;20041;-71
2022/12/18 07:04:04;;;;;;;25.27;17.15;;;-4.70;99.90;;;;;;5015865;28;20044;-71
2022/12/18 07:06:29;;;;;;;31.00;17.00;;;-4.80;99.90;;;;;;5016804;28;20095;-71
2022/12/18 07:08:55;;;;;;;30.83;16.45;;;-4.80;99.90;;;;;;5023927;28;20099;-71
2022/12/18 07:11:21;;;;;;;27.90;17.25;;;-4.70;99.90;;;;;;5036488;28;20026;-71
2022/12/18 07:13:47;;;;;;;24.52;15.95;;;-4.60;99.90;;;;;;5015983;28;20026;-71
2022/12/18 07:16:15;;;;;;;32.85;12.80;;;-4.60;99.90;;;;;;5016617;28;20026;-71
2022/12/18 07:18:41;;;;;;;28.92;16.20;;;-4.80;99.90;;;;;;5014310;28;20160;-71
2022/12/18 07:21:12;;;;;;;26.70;15.10;;;-4.80;99.90;;;;;;5017064;28;20121;-72
2022/12/18 07:23:38;;;;;;;18.85;14.65;;;-4.60;99.90;;;;;;5016960;28;20130;-71
2022/12/18 07:26:05;;;;;;;27.25;16.00;;;-4.60;99.90;;;;;;5038976;28;20121;-70
2022/12/18 07:28:32;;;;;;;21.83;15.00;;;-4.50;99.90;;;;;;5010452;28;20076;-70
2022/12/18 07:31:01;;;;;;;30.00;16.95;;;-4.40;99.90;;;;;;5011849;28;20040;-71
2022/12/18 07:33:27;;;;;;;22.05;14.60;;;-4.50;99.90;;;;;;5014292;28;20122;-71
2022/12/18 07:35:53;;;;;;;20.55;13.10;;;-4.60;99.90;;;;;;5013431;28;20121;-71
2022/12/18 07:38:18;;;;;;;24.20;14.30;;;-4.50;99.90;;;;;;5010792;28;20053;-71
2022/12/18 07:40:44;;;;;;;28.20;15.60;;;-4.50;99.90;;;;;;5016799;28;20571;-71
2022/12/18 07:43:09;;;;;;;21.38;14.02;;;-4.30;99.90;;;;;;5038648;28;20040;-71
2022/12/18 07:45:36;;;;;;;25.33;14.45;;;-4.20;99.90;;;;;;5011843;28;20037;-70
2022/12/18 07:48:02;;;;;;;23.40;14.05;;;-4.40;99.90;;;;;;5013228;28;20575;-70
2022/12/18 07:50:27;;;;;;;23.70;15.60;;;-4.20;99.90;;;;;;5019221;28;20033;-71
2022/12/18 07:52:53;;;;;;;20.45;15.18;;;-4.10;99.90;;;;;;5012464;28;20065;-71
2022/12/18 07:55:18;;;;;;;28.10;18.30;;;-4.50;99.90;;;;;;5014114;28;20022;-70
2022/12/18 07:57:44;;;;;;;34.47;15.98;;;-4.80;99.90;;;;;;5019476;28;20029;-71
2022/12/18 08:00:11;;;;;;;18.30;14.80;;;-4.80;99.90;;;;;;5021333;28;20501;-71
2022/12/18 08:02:36;;;;;;;19.83;16.13;;;-4.80;99.90;;;;;;5016507;28;20408;-70
2022/12/18 08:05:02;;;;;;;30.38;16.13;;;-4.50;99.90;;;;;;5015753;28;20038;-70
2022/12/18 08:07:28;;;;;;;22.42;13.65;;;-4.50;99.90;;;;;;5011746;28;20049;-71
2022/12/18 08:09:53;;;;;;;23.25;14.73;;;-4.40;99.90;;;;;;5014794;28;20678;-70
2022/12/18 08:12:19;;;;;;;25.10;12.85;;;-4.10;99.90;;;;;;5022698;28;20038;-69
2022/12/18 08:14:44;;;;;;;17.48;11.77;;;-4.00;99.90;;;;;;5016950;28;20120;-70
2022/12/18 08:17:10;;;;;;;20.05;13.20;;;-4.30;99.90;;;;;;5015273;28;20081;-70
2022/12/18 08:19:36;;;;;;;15.27;13.07;;;-4.30;99.90;;;;;;5022309;28;20498;-70
2022/12/18 08:22:01;;;;;;;37.08;14.50;;;-4.20;99.90;;;;;;5014202;28;20491;-71
2022/12/18 08:24:27;;;;;;;21.83;13.40;;;-4.20;99.90;;;;;;5019026;28;20447;-71
2022/12/18 08:26:53;;;;;;;16.60;12.85;;;-4.40;99.90;;;;;;5028590;28;20662;-70
2022/12/18 08:29:18;;;;;;;16.90;11.50;;;-4.30;99.90;;;;;;5018574;28;20514;-70
2022/12/18 08:31:44;;;;;;;24.48;14.38;;;-4.40;99.90;;;;;;5016890;28;20103;-70
2022/12/18 08:34:10;;;;;;;20.55;14.18;;;-4.50;99.90;;;;;;5010007;28;20037;-71
2022/12/18 08:36:35;;;;;;;26.80;14.18;;;-4.60;99.90;;;;;;5014653;28;20046;-71
2022/12/18 08:39:01;;;;;;;26.83;12.68;;;-4.40;99.90;;;;;;5001875;28;20030;-71
2022/12/18 08:41:26;;;;;;;23.75;13.57;;;-4.20;99.90;;;;;;5021742;28;20048;-71
2022/12/18 08:46:39;;;;;;;27.25;12.55;;;-4.40;99.90;;;;;;5030233;28;20045;-70
2022/12/18 08:49:07;;;;;;;21.65;11.93;;;-4.60;99.90;;;;;;5015248;28;20498;-71
2022/12/18 08:51:33;;;;;;;24.20;12.75;;;-4.60;99.90;;;;;;5010641;28;20037;-70
2022/12/18 08:53:59;;;;;;;21.40;13.98;;;-4.40;99.90;;;;;;5014155;28;20048;-70
2022/12/18 08:56:25;;;;;;;21.02;12.25;;;-4.10;99.90;;;;;;5010686;28;20034;-72
2022/12/18 08:58:54;;;;;;;23.80;13.82;;;-3.80;99.90;;;;;;5038483;28;20052;-71
2022/12/18 09:01:21;;;;;;;16.48;11.32;;;-3.80;99.90;;;;;;5013943;28;20041;-71
2022/12/18 09:03:51;;;;;;;25.10;14.48;;;-4.10;99.90;;;;;;5022143;28;20141;-72
2022/12/18 09:06:18;;;;;;;14.05;11.55;;;-4.20;99.90;;;;;;5016388;28;20034;-73
2022/12/18 09:08:44;;;;;;;18.17;13.98;;;-4.10;99.90;;;;;;5017294;28;20077;-72
2022/12/18 09:11:18;;;;;;;23.00;13.82;;;-4.00;99.90;;;;;;5021419;28;20029;-72
2022/12/18 09:13:43;;;;;;;21.48;13.73;;;-4.30;99.90;;;;;;5006649;28;20037;-71
2022/12/18 09:16:09;;;;;;;24.63;14.13;;;-4.10;99.90;;;;;;5004778;28;20033;-73
2022/12/18 09:18:35;;;;;;;21.45;13.15;;;-3.80;99.90;;;;;;5010369;28;20105;-72
2022/12/18 09:21:11;;;;;;;31.92;15.23;;;-3.60;99.90;;;;;;5012794;28;20034;-71
2022/12/18 09:23:37;;;;;;;35.00;16.85;;;-3.50;99.90;;;;;;5010517;28;20033;-72
2022/12/18 09:26:03;;;;;;;22.27;12.48;;;-3.70;99.90;;;;;;5011442;28;20025;-73
2022/12/18 09:28:28;;;;;;;28.50;14.75;;;-3.70;99.90;;;;;;5019520;28;20456;-72
2022/12/18 09:30:54;;;;;;;25.60;14.82;;;-3.70;99.90;;;;;;5025073;28;20456;-72
2022/12/18 09:33:20;;;;;;;32.03;14.50;;;-4.10;99.90;;;;;;5014193;28;20037;-80
2022/12/18 09:35:46;;;;;;;26.70;15.93;;;-4.10;99.90;;;;;;5009302;28;20073;-83
2022/12/18 09:38:18;;;;;;;39.15;14.98;;;-4.00;99.90;;;;;;5026442;28;20068;-80
2022/12/18 09:40:59;;;;;;;29.92;15.77;;;-4.10;99.90;;;;;;5016777;28;20104;-80
2022/12/18 09:43:41;;;;;;;25.65;14.77;;;-4.20;99.90;;;;;;5009674;28;20084;-81
2022/12/18 09:46:15;;;;;;;21.98;13.23;;;-4.30;99.90;;;;;;5023480;28;20032;-71
2022/12/18 09:48:46;;;;;;;22.23;14.60;;;-3.80;99.90;;;;;;5022905;23;20386;-82
2022/12/18 09:51:50;;;;;;;21.52;15.38;;;-3.80;99.90;;;;;;5037328;28;20025;-80
2022/12/18 09:54:25;;;;;;;19.92;12.75;;;-3.80;99.90;;;;;;5032526;28;20048;-84
2022/12/18 09:56:51;;;;;;;20.75;14.30;;;-3.90;99.90;;;;;;5022593;28;20096;-82
2022/12/18 09:59:31;;;;;;;21.08;12.73;;;-3.80;99.90;;;;;;5000427;28;20042;-80
2022/12/18 10:02:32;;;;;;;15.32;11.90;;;-3.80;99.90;;;;;;5013643;28;20404;-86
2022/12/18 10:05:16;;;;;;;17.92;13.15;;;-3.80;99.90;;;;;;5020796;28;20057;-80
2022/12/18 10:08:00;;;;;;;21.05;13.40;;;-3.80;99.90;;;;;;5041078;28;20034;-81
2022/12/18 10:10:54;;;;;;;14.95;11.77;;;-3.70;99.90;;;;;;5015364;28;20045;-82
2022/12/18 10:13:49;;;;;;;20.13;11.85;;;-3.60;99.90;;;;;;5024721;28;20044;-81
2022/12/18 10:16:22;;;;;;;19.20;11.43;;;-3.70;99.90;;;;;;5021412;28;20499;-82
2022/12/18 10:19:11;;;;;;;12.80;11.40;;;-3.70;99.90;;;;;;5024394;28;20060;-82
2022/12/18 10:22:23;;;;;;;19.52;12.15;;;-3.20;99.90;;;;;;5020066;28;20091;-82
2022/12/18 10:25:20;;;;;;;24.60;12.57;;;-2.80;99.90;;;;;;4990463;28;20451;-81
2022/12/18 10:27:46;;;;;;;18.85;11.98;;;-3.30;99.60;;;;;;4992209;28;20038;-81
2022/12/18 10:30:18;;;;;;;24.83;12.43;;;-3.30;99.30;;;;;;5008654;28;20064;-85
2022/12/18 10:32:43;;;;;;;21.48;12.02;;;-3.40;99.40;;;;;;5027216;28;20750;-79
2022/12/18 10:35:21;;;;;;;22.90;11.70;;;-3.20;99.60;;;;;;5042162;28;20038;-83
2022/12/18 10:38:21;;;;;;;20.75;13.65;;;-3.80;99.90;;;;;;5033813;28;20034;-82
2022/12/18 10:41:20;;;;;;;22.85;13.57;;;-3.50;99.90;;;;;;5023045;28;20026;-82
2022/12/18 10:43:46;;;;;;;17.98;11.50;;;-3.40;99.90;;;;;;5035646;28;20033;-81
2022/12/18 10:46:32;;;;;;;21.77;12.35;;;-3.50;99.90;;;;;;5009117;28;20049;-84
2022/12/18 10:49:01;;;;;;;20.52;11.73;;;-3.10;99.40;;;;;;5032450;28;20050;-83
2022/12/18 10:51:28;;;;;;;17.23;11.35;;;-2.80;99.50;;;;;;5028769;28;20033;-81
2022/12/18 10:54:34;;;;;;;20.23;11.07;;;-2.80;99.20;;;;;;5028636;28;20065;-81
2022/12/18 10:57:40;;;;;;;19.33;12.23;;;-2.40;97.70;;;;;;5017983;28;20152;-81
2022/12/18 11:00:27;;;;;;;18.60;11.10;;;-2.80;98.40;;;;;;4993700;28;20891;-80
2022/12/18 11:02:55;;;;;;;17.45;11.70;;;-3.20;97.80;;;;;;5007553;28;20505;-87
2022/12/18 11:05:29;;;;;;;17.75;12.18;;;-3.30;99.40;;;;;;5013252;28;20042;-80
2022/12/18 11:07:56;;;;;;;18.15;12.27;;;-3.40;99.50;;;;;;5027617;28;20038;-84
2022/12/18 11:10:50;;;;;;;18.42;12.77;;;-3.40;99.90;;;;;;5022622;28;20042;-84
2022/12/18 11:17:19;;;;;;;23.27;12.55;;;-3.60;99.90;;;;;;5031150;28;20047;-88
2022/12/18 11:20:00;;;;;;;18.95;12.88;;;-3.30;99.50;;;;;;5034363;28;20048;-83
2022/12/18 11:23:12;;;;;;;18.65;11.40;;;-2.90;98.60;;;;;;5018611;28;20042;-86
2022/12/18 11:25:55;;;;;;;18.98;11.73;;;-2.80;98.50;;;;;;5030900;28;20049;-83
2022/12/18 11:28:51;;;;;;;19.27;11.13;;;-3.20;97.90;;;;;;5029825;28;20030;-86
2022/12/18 11:31:22;;;;;;;13.63;11.23;;;-3.50;99.40;;;;;;5035677;28;20034;-79
2022/12/18 11:34:13;;;;;;;22.25;12.73;;;-3.40;99.20;;;;;;5028080;28;20041;-83
2022/12/18 11:36:54;;;;;;;;;;;-3.30;99.10;;;;;;5017016;28;20026;-87
2022/12/18 11:40:04;;;;;;;15.98;10.98;;;-3.50;97.60;;;;;;5046517;28;19917;-83
2022/12/18 11:42:57;;;;;;;15.07;10.48;;;-3.10;98.60;;;;;;5018212;28;20029;-82
2022/12/18 11:45:27;;;;;;;18.05;12.05;;;-3.10;97.40;;;;;;5040061;28;20416;-82
2022/12/18 11:48:21;;;;;;;14.52;10.75;;;-2.90;97.00;;;;;;5022905;28;20022;-84
2022/12/18 11:51:24;;;;;;;18.25;12.02;;;-2.40;96.40;;;;;;5030305;28;20451;-87
2022/12/18 11:54:31;;;;;;;18.67;10.98;;;-2.40;97.00;;;;;;5026955;28;20026;-85
2022/12/18 11:57:30;;;;;;;19.23;12.05;;;-2.90;97.50;;;;;;4999383;28;20085;-84
2022/12/18 12:00:14;;;;;;;18.10;10.98;;;-3.30;97.90;;;;;;5024846;28;20030;-80
2022/12/18 12:03:14;;;;;;;25.63;10.95;;;-3.20;98.70;;;;;;5024399;28;20038;-83
2022/12/18 12:06:10;;;;;;;15.77;11.40;;;-3.30;97.80;;;;;;5035520;28;20026;-82
2022/12/18 12:09:33;;;;;;;24.40;11.60;;;-3.70;99.40;;;;;;5029964;28;20119;-82
2022/12/18 12:12:53;;;;;;;25.10;15.15;;;-3.60;98.80;;;;;;5035609;28;20084;-79
2022/12/18 12:15:47;;;;;;;20.77;12.15;;;-3.70;99.30;;;;;;5019198;28;20048;-82
2022/12/18 12:19:08;;;;;;;19.23;11.95;;;-3.60;99.30;;;;;;5041976;28;20068;-86
2022/12/18 12:21:48;;;;;;;20.73;12.52;;;-3.40;98.40;;;;;;4986974;28;20046;-85
2022/12/18 12:24:51;;;;;;;22.33;10.50;;;-3.30;98.80;;;;;;4980215;28;20068;-86
2022/12/18 12:27:54;;;;;;;14.40;10.20;;;-3.10;98.60;;;;;;5036199;28;20034;-86
2022/12/18 12:31:03;;;;;;;15.98;10.35;;;-3.30;97.10;;;;;;5046322;28;20029;-82
2022/12/18 12:33:38;;;;;;;25.17;15.70;;;-3.40;98.70;;;;;;5018233;28;20024;-86
2022/12/18 12:36:31;;;;;;;22.08;11.43;;;-3.80;98.70;;;;;;5029221;28;20037;-81
2022/12/18 12:39:02;;;;;;;23.73;13.63;;;-3.80;99.20;;;;;;5014554;28;20026;-80
2022/12/18 12:44:32;;;;;;;21.48;12.48;;;-4.00;99.70;;;;;;5013597;28;20037;-80
2022/12/18 12:47:00;;;;;;;;;;;-3.60;99.90;;;;;;5020502;28;20044;-85
2022/12/18 12:49:32;;;;;;;20.02;10.25;;;-3.60;99.50;;;;;;5017211;28;19917;-80
2022/12/18 12:52:03;;;;;;;15.80;12.32;;;-3.20;99.90;;;;;;5022492;28;20064;-86
2022/12/18 12:55:09;;;;;;;16.27;10.50;;;-3.30;99.10;;;;;;5033741;28;20036;-86
2022/12/18 12:58:16;;;;;;;18.92;11.13;;;-3.20;98.40;;;;;;5029318;28;20041;-80
2022/12/18 13:01:01;;;;;;;15.13;11.43;;;-3.40;98.70;;;;;;5024601;28;20093;-82
2022/12/18 13:03:48;;;;;;;19.38;12.27;;;-3.40;98.70;;;;;;5028080;28;20028;-85
2022/12/18 13:06:32;;;;;;;23.73;13.32;;;-3.40;98.90;;;;;;5037493;28;20037;-81
2022/12/18 13:09:07;;;;;;;22.83;10.82;;;-3.40;98.10;;;;;;5025764;28;20027;-87
2022/12/18 13:14:32;;;;;;;17.52;11.48;;;-3.50;98.10;;;;;;5021574;28;20176;-81